sensor_id;sensor_type;location;lat;lon;timestamp;temperature;humidity
17659;DHT22;8948;51.534;8.262;2022-11-15T00:04:35;11.00;74.20
17659;DHT22;8948;51.534;8.262;2022-11-15T00:09:35;11.20;74.30
17659;DHT22;8948;51.534;8.262;2022-11-15T00:14:36;11.30;73.70
17659;DHT22;8948;51.534;8.262;2022-11-15T00:19:36;11.40;73.90
17659;DHT22;8948;51.534;8.262;2022-11-15T00:24:37;11.50;73.80
17659;DHT22;8948;51.534;8.262;2022-11-15T00:29:38;11.60;73.50
17659;DHT22;8948;51.534;8.262;2022-11-15T00:34:38;11.70;73.80
17659;DHT22;8948;51.534;8.262;2022-11-15T00:39:39;11.80;73.90
17659;DHT22;8948;51.534;8.262;2022-11-15T00:44:39;11.90;74.20
17659;DHT22;8948;51.534;8.262;2022-11-15T00:49:40;12.00;73.70
17659;DHT22;8948;51.534;8.262;2022-11-15T00:54:42;12.00;74.70
17659;DHT22;8948;51.534;8.262;2022-11-15T00:59:42;12.00;74.20
17659;DHT22;8948;51.534;8.262;2022-11-15T01:04:43;12.10;74.90
17659;DHT22;8948;51.534;8.262;2022-11-15T01:09:43;12.20;74.70
17659;DHT22;8948;51.534;8.262;2022-11-15T01:14:44;12.20;74.30
17659;DHT22;8948;51.534;8.262;2022-11-15T01:19:44;12.20;74.40
17659;DHT22;8948;51.534;8.262;2022-11-15T01:24:45;12.20;74.50
17659;DHT22;8948;51.534;8.262;2022-11-15T01:29:46;12.20;74.50
17659;DHT22;8948;51.534;8.262;2022-11-15T01:34:46;12.10;74.30
17659;DHT22;8948;51.534;8.262;2022-11-15T01:39:47;12.00;74.60
17659;DHT22;8948;51.534;8.262;2022-11-15T01:50:10;12.10;74.80
17659;DHT22;8948;51.534;8.262;2022-11-15T01:55:15;12.10;75.20
17659;DHT22;8948;51.534;8.262;2022-11-15T02:00:16;12.10;74.70
17659;DHT22;8948;51.534;8.262;2022-11-15T02:05:17;12.20;74.40
17659;DHT22;8948;51.534;8.262;2022-11-15T02:10:20;12.10;74.80
17659;DHT22;8948;51.534;8.262;2022-11-15T02:15:24;12.20;74.50
17659;DHT22;8948;51.534;8.262;2022-11-15T02:20:49;12.30;73.90
17659;DHT22;8948;51.534;8.262;2022-11-15T02:26:14;12.20;74.10
17659;DHT22;8948;51.534;8.262;2022-11-15T02:36:49;12.10;74.60
17659;DHT22;8948;51.534;8.262;2022-11-15T02:42:00;12.10;74.40
17659;DHT22;8948;51.534;8.262;2022-11-15T02:47:07;12.10;74.10
17659;DHT22;8948;51.534;8.262;2022-11-15T02:52:21;12.10;74.40
17659;DHT22;8948;51.534;8.262;2022-11-15T02:57:43;12.00;74.80
17659;DHT22;8948;51.534;8.262;2022-11-15T03:13:39;12.20;74.90
17659;DHT22;8948;51.534;8.262;2022-11-15T03:18:53;12.20;74.80
17659;DHT22;8948;51.534;8.262;2022-11-15T03:23:58;12.30;74.70
17659;DHT22;8948;51.534;8.262;2022-11-15T03:29:09;12.40;74.50
17659;DHT22;8948;51.534;8.262;2022-11-15T03:34:32;12.50;74.30
17659;DHT22;8948;51.534;8.262;2022-11-15T03:39:34;12.70;74.10
17659;DHT22;8948;51.534;8.262;2022-11-15T03:49:45;12.70;73.80
17659;DHT22;8948;51.534;8.262;2022-11-15T03:54:55;12.80;73.80
17659;DHT22;8948;51.534;8.262;2022-11-15T03:59:56;12.80;73.90
17659;DHT22;8948;51.534;8.262;2022-11-15T04:04:57;12.80;73.60
17659;DHT22;8948;51.534;8.262;2022-11-15T04:09:57;12.80;73.30
17659;DHT22;8948;51.534;8.262;2022-11-15T04:15:09;12.80;73.30
17659;DHT22;8948;51.534;8.262;2022-11-15T04:20:21;12.80;73.20
17659;DHT22;8948;51.534;8.262;2022-11-15T04:25:42;12.90;73.00
17659;DHT22;8948;51.534;8.262;2022-11-15T04:30:43;12.80;73.20
17659;DHT22;8948;51.534;8.262;2022-11-15T04:35:44;12.90;73.10
17659;DHT22;8948;51.534;8.262;2022-11-15T04:41:04;12.90;73.20
17659;DHT22;8948;51.534;8.262;2022-11-15T04:46:05;12.90;73.10
17659;DHT22;8948;51.534;8.262;2022-11-15T04:51:05;12.90;72.70
17659;DHT22;8948;51.534;8.262;2022-11-15T04:56:06;12.90;72.50
17659;DHT22;8948;51.534;8.262;2022-11-15T05:01:11;12.90;72.40
17659;DHT22;8948;51.534;8.262;2022-11-15T05:06:12;12.90;72.40
17659;DHT22;8948;51.534;8.262;2022-11-15T05:11:12;12.80;72.50
17659;DHT22;8948;51.534;8.262;2022-11-15T05:16:13;12.90;72.60
17659;DHT22;8948;51.534;8.262;2022-11-15T05:21:14;12.90;72.10
17659;DHT22;8948;51.534;8.262;2022-11-15T05:26:17;12.90;71.70
17659;DHT22;8948;51.534;8.262;2022-11-15T05:31:17;13.00;71.60
17659;DHT22;8948;51.534;8.262;2022-11-15T05:36:34;12.90;71.40
17659;DHT22;8948;51.534;8.262;2022-11-15T05:41:43;13.00;71.20
17659;DHT22;8948;51.534;8.262;2022-11-15T05:46:45;13.00;71.00
17659;DHT22;8948;51.534;8.262;2022-11-15T05:51:47;13.00;71.10
17659;DHT22;8948;51.534;8.262;2022-11-15T05:56:49;13.00;71.20
17659;DHT22;8948;51.534;8.262;2022-11-15T06:01:50;13.00;71.20
17659;DHT22;8948;51.534;8.262;2022-11-15T06:06:50;13.00;71.30
17659;DHT22;8948;51.534;8.262;2022-11-15T06:11:51;13.00;71.40
17659;DHT22;8948;51.534;8.262;2022-11-15T06:16:51;12.90;71.50
17659;DHT22;8948;51.534;8.262;2022-11-15T06:21:52;12.80;71.80
17659;DHT22;8948;51.534;8.262;2022-11-15T06:26:53;12.70;72.10
17659;DHT22;8948;51.534;8.262;2022-11-15T06:31:53;12.70;72.50
17659;DHT22;8948;51.534;8.262;2022-11-15T06:36:54;12.70;72.40
17659;DHT22;8948;51.534;8.262;2022-11-15T06:41:54;12.70;72.60
17659;DHT22;8948;51.534;8.262;2022-11-15T06:46:55;12.70;73.00
17659;DHT22;8948;51.534;8.262;2022-11-15T06:51:56;12.80;72.50
17659;DHT22;8948;51.534;8.262;2022-11-15T06:56:56;12.80;72.50
17659;DHT22;8948;51.534;8.262;2022-11-15T07:01:57;12.90;72.30
17659;DHT22;8948;51.534;8.262;2022-11-15T07:06:57;12.90;71.90
17659;DHT22;8948;51.534;8.262;2022-11-15T07:11:58;12.90;71.90
17659;DHT22;8948;51.534;8.262;2022-11-15T07:16:58;13.00;71.80
17659;DHT22;8948;51.534;8.262;2022-11-15T07:21:59;13.00;71.50
17659;DHT22;8948;51.534;8.262;2022-11-15T07:26:59;13.00;71.20
17659;DHT22;8948;51.534;8.262;2022-11-15T07:32:00;13.00;71.20
17659;DHT22;8948;51.534;8.262;2022-11-15T07:37:00;13.10;70.70
17659;DHT22;8948;51.534;8.262;2022-11-15T07:42:01;13.10;70.20
17659;DHT22;8948;51.534;8.262;2022-11-15T07:47:20;13.10;70.00
17659;DHT22;8948;51.534;8.262;2022-11-15T07:52:21;13.00;69.60
17659;DHT22;8948;51.534;8.262;2022-11-15T07:57:21;13.10;68.30
17659;DHT22;8948;51.534;8.262;2022-11-15T08:02:22;13.20;67.80
17659;DHT22;8948;51.534;8.262;2022-11-15T08:07:22;13.30;66.60
17659;DHT22;8948;51.534;8.262;2022-11-15T08:12:23;13.50;66.20
17659;DHT22;8948;51.534;8.262;2022-11-15T08:17:24;13.60;65.50
17659;DHT22;8948;51.534;8.262;2022-11-15T08:22:25;13.70;64.70
17659;DHT22;8948;51.534;8.262;2022-11-15T08:27:25;13.80;64.40
17659;DHT22;8948;51.534;8.262;2022-11-15T08:32:26;14.00;64.30
17659;DHT22;8948;51.534;8.262;2022-11-15T08:37:26;14.10;63.70
17659;DHT22;8948;51.534;8.262;2022-11-15T08:42:27;14.00;63.70
17659;DHT22;8948;51.534;8.262;2022-11-15T08:47:27;14.00;62.80
17659;DHT22;8948;51.534;8.262;2022-11-15T08:52:28;14.00;63.70
17659;DHT22;8948;51.534;8.262;2022-11-15T08:57:29;14.00;64.10
17659;DHT22;8948;51.534;8.262;2022-11-15T09:02:30;14.10;63.80
17659;DHT22;8948;51.534;8.262;2022-11-15T09:07:31;14.20;64.00
17659;DHT22;8948;51.534;8.262;2022-11-15T09:12:32;14.30;63.30
17659;DHT22;8948;51.534;8.262;2022-11-15T09:17:32;14.30;63.50
17659;DHT22;8948;51.534;8.262;2022-11-15T09:22:33;14.60;62.90
17659;DHT22;8948;51.534;8.262;2022-11-15T09:27:34;14.80;62.20
17659;DHT22;8948;51.534;8.262;2022-11-15T09:32:35;15.10;61.10
17659;DHT22;8948;51.534;8.262;2022-11-15T09:37:36;15.10;61.10
17659;DHT22;8948;51.534;8.262;2022-11-15T09:48:38;15.20;61.00
17659;DHT22;8948;51.534;8.262;2022-11-15T10:04:05;15.10;59.30
17659;DHT22;8948;51.534;8.262;2022-11-15T10:09:17;15.10;59.10
17659;DHT22;8948;51.534;8.262;2022-11-15T10:14:25;15.40;58.90
17659;DHT22;8948;51.534;8.262;2022-11-15T10:24:46;15.50;58.40
17659;DHT22;8948;51.534;8.262;2022-11-15T10:29:49;15.70;57.10
17659;DHT22;8948;51.534;8.262;2022-11-15T10:34:50;15.70;56.60
17659;DHT22;8948;51.534;8.262;2022-11-15T10:40:16;15.80;57.10
17659;DHT22;8948;51.534;8.262;2022-11-15T10:50:29;15.80;56.20
17659;DHT22;8948;51.534;8.262;2022-11-15T10:55:31;15.90;56.50
17659;DHT22;8948;51.534;8.262;2022-11-15T11:00:36;15.90;56.20
17659;DHT22;8948;51.534;8.262;2022-11-15T11:05:40;15.70;56.70
17659;DHT22;8948;51.534;8.262;2022-11-15T11:11:01;15.80;56.00
17659;DHT22;8948;51.534;8.262;2022-11-15T11:21:42;16.30;53.20
17659;DHT22;8948;51.534;8.262;2022-11-15T11:26:49;16.40;53.80
17659;DHT22;8948;51.534;8.262;2022-11-15T11:37:42;16.80;52.70
17659;DHT22;8948;51.534;8.262;2022-11-15T11:48:21;16.70;51.00
17659;DHT22;8948;51.534;8.262;2022-11-15T12:04:35;16.90;52.70
17659;DHT22;8948;51.534;8.262;2022-11-15T12:09:56;17.10;52.70
17659;DHT22;8948;51.534;8.262;2022-11-15T12:20:22;17.20;50.60
17659;DHT22;8948;51.534;8.262;2022-11-15T12:25:31;17.30;47.90
17659;DHT22;8948;51.534;8.262;2022-11-15T12:30:51;17.50;47.90
17659;DHT22;8948;51.534;8.262;2022-11-15T12:36:02;17.40;47.30
17659;DHT22;8948;51.534;8.262;2022-11-15T12:41:15;17.40;47.70
17659;DHT22;8948;51.534;8.262;2022-11-15T12:56:44;18.50;44.50
17659;DHT22;8948;51.534;8.262;2022-11-15T13:11:51;19.10;44.90
17659;DHT22;8948;51.534;8.262;2022-11-15T13:16:58;19.10;43.50
17659;DHT22;8948;51.534;8.262;2022-11-15T13:21:59;18.90;43.00
17659;DHT22;8948;51.534;8.262;2022-11-15T13:27:19;18.80;43.80
17659;DHT22;8948;51.534;8.262;2022-11-15T13:32:20;18.50;44.70
17659;DHT22;8948;51.534;8.262;2022-11-15T13:42:22;18.00;44.10
17659;DHT22;8948;51.534;8.262;2022-11-15T13:47:25;17.90;44.80
17659;DHT22;8948;51.534;8.262;2022-11-15T13:52:31;17.80;45.00
17659;DHT22;8948;51.534;8.262;2022-11-15T13:57:44;17.50;45.40
17659;DHT22;8948;51.534;8.262;2022-11-15T14:02:46;17.40;45.40
17659;DHT22;8948;51.534;8.262;2022-11-15T14:07:58;17.30;46.30
17659;DHT22;8948;51.534;8.262;2022-11-15T14:12:59;17.20;46.30
17659;DHT22;8948;51.534;8.262;2022-11-15T14:18:01;17.00;47.70
17659;DHT22;8948;51.534;8.262;2022-11-15T14:28:28;16.70;48.20
17659;DHT22;8948;51.534;8.262;2022-11-15T14:33:33;16.60;48.70
17659;DHT22;8948;51.534;8.262;2022-11-15T14:38:33;16.50;49.20
17659;DHT22;8948;51.534;8.262;2022-11-15T14:43:34;16.40;49.40
17659;DHT22;8948;51.534;8.262;2022-11-15T14:48:35;16.40;50.20
17659;DHT22;8948;51.534;8.262;2022-11-15T14:53:36;16.40;50.40
17659;DHT22;8948;51.534;8.262;2022-11-15T14:58:37;16.40;50.70
17659;DHT22;8948;51.534;8.262;2022-11-15T15:03:37;16.40;50.70
17659;DHT22;8948;51.534;8.262;2022-11-15T15:08:39;16.40;50.80
17659;DHT22;8948;51.534;8.262;2022-11-15T15:13:40;16.30;51.30
17659;DHT22;8948;51.534;8.262;2022-11-15T15:18:40;16.10;50.60
17659;DHT22;8948;51.534;8.262;2022-11-15T15:23:41;16.00;51.20
17659;DHT22;8948;51.534;8.262;2022-11-15T15:28:41;15.80;51.60
17659;DHT22;8948;51.534;8.262;2022-11-15T15:33:42;15.60;51.90
17659;DHT22;8948;51.534;8.262;2022-11-15T15:38:43;15.50;51.80
17659;DHT22;8948;51.534;8.262;2022-11-15T15:43:44;15.40;52.00
17659;DHT22;8948;51.534;8.262;2022-11-15T15:48:45;15.30;52.30
17659;DHT22;8948;51.534;8.262;2022-11-15T15:53:46;15.20;52.40
17659;DHT22;8948;51.534;8.262;2022-11-15T15:58:47;15.20;52.70
17659;DHT22;8948;51.534;8.262;2022-11-15T16:03:48;15.10;52.90
17659;DHT22;8948;51.534;8.262;2022-11-15T16:08:48;15.00;53.10
17659;DHT22;8948;51.534;8.262;2022-11-15T16:13:49;14.80;53.60
17659;DHT22;8948;51.534;8.262;2022-11-15T16:18:49;14.80;53.80
17659;DHT22;8948;51.534;8.262;2022-11-15T16:23:50;14.70;54.20
17659;DHT22;8948;51.534;8.262;2022-11-15T16:28:51;14.50;55.10
17659;DHT22;8948;51.534;8.262;2022-11-15T16:33:52;14.40;56.00
17659;DHT22;8948;51.534;8.262;2022-11-15T16:38:53;14.20;56.90
17659;DHT22;8948;51.534;8.262;2022-11-15T16:43:53;14.10;58.00
17659;DHT22;8948;51.534;8.262;2022-11-15T16:48:54;14.10;58.30
17659;DHT22;8948;51.534;8.262;2022-11-15T16:53:55;14.00;58.60
17659;DHT22;8948;51.534;8.262;2022-11-15T16:58:57;14.10;58.90
17659;DHT22;8948;51.534;8.262;2022-11-15T17:03:58;14.10;58.80
17659;DHT22;8948;51.534;8.262;2022-11-15T17:08:59;14.10;59.00
17659;DHT22;8948;51.534;8.262;2022-11-15T17:14:01;14.20;58.90
17659;DHT22;8948;51.534;8.262;2022-11-15T17:19:01;14.20;59.00
17659;DHT22;8948;51.534;8.262;2022-11-15T17:24:02;14.20;58.80
17659;DHT22;8948;51.534;8.262;2022-11-15T17:29:03;14.20;59.20
17659;DHT22;8948;51.534;8.262;2022-11-15T17:34:07;14.10;59.30
17659;DHT22;8948;51.534;8.262;2022-11-15T17:39:07;14.10;59.80
17659;DHT22;8948;51.534;8.262;2022-11-15T17:44:08;14.10;59.90
17659;DHT22;8948;51.534;8.262;2022-11-15T17:49:08;14.10;60.10
17659;DHT22;8948;51.534;8.262;2022-11-15T17:54:10;14.00;60.30
17659;DHT22;8948;51.534;8.262;2022-11-15T17:59:11;14.10;60.50
17659;DHT22;8948;51.534;8.262;2022-11-15T18:04:11;14.10;60.60
17659;DHT22;8948;51.534;8.262;2022-11-15T18:09:14;14.10;60.70
17659;DHT22;8948;51.534;8.262;2022-11-15T18:14:14;14.10;60.70
17659;DHT22;8948;51.534;8.262;2022-11-15T18:19:15;14.20;60.80
17659;DHT22;8948;51.534;8.262;2022-11-15T18:24:16;14.20;60.90
17659;DHT22;8948;51.534;8.262;2022-11-15T18:29:16;14.20;61.00
17659;DHT22;8948;51.534;8.262;2022-11-15T18:34:17;14.10;61.30
17659;DHT22;8948;51.534;8.262;2022-11-15T18:39:18;14.10;61.50
17659;DHT22;8948;51.534;8.262;2022-11-15T18:44:19;14.20;61.30
17659;DHT22;8948;51.534;8.262;2022-11-15T18:49:19;14.10;61.60
17659;DHT22;8948;51.534;8.262;2022-11-15T18:54:20;14.20;61.40
17659;DHT22;8948;51.534;8.262;2022-11-15T18:59:21;14.30;61.20
17659;DHT22;8948;51.534;8.262;2022-11-15T19:04:21;14.30;61.10
17659;DHT22;8948;51.534;8.262;2022-11-15T19:09:22;14.30;61.20
17659;DHT22;8948;51.534;8.262;2022-11-15T19:14:26;14.40;60.90
17659;DHT22;8948;51.534;8.262;2022-11-15T19:19:27;14.40;61.00
17659;DHT22;8948;51.534;8.262;2022-11-15T19:24:28;14.40;60.80
17659;DHT22;8948;51.534;8.262;2022-11-15T19:29:29;14.40;60.70
17659;DHT22;8948;51.534;8.262;2022-11-15T19:34:30;14.40;61.00
17659;DHT22;8948;51.534;8.262;2022-11-15T19:39:30;14.40;60.90
17659;DHT22;8948;51.534;8.262;2022-11-15T19:44:31;14.40;61.00
17659;DHT22;8948;51.534;8.262;2022-11-15T19:49:31;14.40;60.90
17659;DHT22;8948;51.534;8.262;2022-11-15T19:54:32;14.40;60.80
17659;DHT22;8948;51.534;8.262;2022-11-15T19:59:32;14.30;61.00
17659;DHT22;8948;51.534;8.262;2022-11-15T20:04:33;14.30;61.20
17659;DHT22;8948;51.534;8.262;2022-11-15T20:09:33;14.30;61.50
17659;DHT22;8948;51.534;8.262;2022-11-15T20:14:34;14.30;61.40
17659;DHT22;8948;51.534;8.262;2022-11-15T20:19:35;14.20;61.70
17659;DHT22;8948;51.534;8.262;2022-11-15T20:24:35;14.30;61.50
17659;DHT22;8948;51.534;8.262;2022-11-15T20:29:36;14.30;61.40
17659;DHT22;8948;51.534;8.262;2022-11-15T20:34:36;14.30;61.60
17659;DHT22;8948;51.534;8.262;2022-11-15T20:39:37;14.30;61.70
17659;DHT22;8948;51.534;8.262;2022-11-15T20:44:38;14.30;61.90
17659;DHT22;8948;51.534;8.262;2022-11-15T20:49:39;14.20;62.30
17659;DHT22;8948;51.534;8.262;2022-11-15T20:54:39;14.20;62.80
17659;DHT22;8948;51.534;8.262;2022-11-15T20:59:40;14.10;63.20
17659;DHT22;8948;51.534;8.262;2022-11-15T21:04:40;14.10;63.50
17659;DHT22;8948;51.534;8.262;2022-11-15T21:09:41;14.00;63.50
17659;DHT22;8948;51.534;8.262;2022-11-15T21:15:00;14.00;63.60
17659;DHT22;8948;51.534;8.262;2022-11-15T21:20:01;14.00;63.40
17659;DHT22;8948;51.534;8.262;2022-11-15T21:25:02;14.00;63.10
17659;DHT22;8948;51.534;8.262;2022-11-15T21:30:03;14.00;63.00
17659;DHT22;8948;51.534;8.262;2022-11-15T21:35:04;14.00;63.00
17659;DHT22;8948;51.534;8.262;2022-11-15T21:40:05;14.00;62.90
17659;DHT22;8948;51.534;8.262;2022-11-15T21:45:06;14.00;62.60
17659;DHT22;8948;51.534;8.262;2022-11-15T21:50:07;14.00;62.40
17659;DHT22;8948;51.534;8.262;2022-11-15T21:55:08;14.00;62.50
17659;DHT22;8948;51.534;8.262;2022-11-15T22:00:09;14.00;62.50
17659;DHT22;8948;51.534;8.262;2022-11-15T22:05:29;14.10;62.50
17659;DHT22;8948;51.534;8.262;2022-11-15T22:10:29;14.10;62.40
17659;DHT22;8948;51.534;8.262;2022-11-15T22:15:30;14.00;62.60
17659;DHT22;8948;51.534;8.262;2022-11-15T22:20:30;14.00;62.80
17659;DHT22;8948;51.534;8.262;2022-11-15T22:25:31;14.00;62.80
17659;DHT22;8948;51.534;8.262;2022-11-15T22:30:32;13.90;63.00
17659;DHT22;8948;51.534;8.262;2022-11-15T22:35:36;13.90;62.90
17659;DHT22;8948;51.534;8.262;2022-11-15T22:40:37;13.90;63.10
17659;DHT22;8948;51.534;8.262;2022-11-15T22:50:48;13.80;64.30
17659;DHT22;8948;51.534;8.262;2022-11-15T22:55:55;13.80;64.30
17659;DHT22;8948;51.534;8.262;2022-11-15T23:00:58;13.70;64.80
17659;DHT22;8948;51.534;8.262;2022-11-15T23:06:03;13.70;65.10
17659;DHT22;8948;51.534;8.262;2022-11-15T23:11:04;13.60;65.70
17659;DHT22;8948;51.534;8.262;2022-11-15T23:16:23;13.60;65.90
17659;DHT22;8948;51.534;8.262;2022-11-15T23:21:41;13.60;66.70
17659;DHT22;8948;51.534;8.262;2022-11-15T23:27:05;13.50;66.90
17659;DHT22;8948;51.534;8.262;2022-11-15T23:32:08;13.50;67.60
17659;DHT22;8948;51.534;8.262;2022-11-15T23:37:28;13.40;67.10
17659;DHT22;8948;51.534;8.262;2022-11-15T23:42:28;13.40;67.30
17659;DHT22;8948;51.534;8.262;2022-11-15T23:47:29;13.30;67.30
17659;DHT22;8948;51.534;8.262;2022-11-15T23:52:29;13.30;67.20
17659;DHT22;8948;51.534;8.262;2022-11-15T23:57:30;13.20;67.00
